Terminal Aerodrome Forecast
Issued by NWS Pendleton, OR

Current Version | Previous Version | Text Only | Print | Product List | Glossary On
Versions: 1 2 3 4 5 6 7 8 9 10 11 12 13
000
FTUS46 KPDT 201100
TAFPDT
TAF
KPDT 201123Z 2012/2112 25015KT P6SM BKN080
     FM201600 26015G25KT P6SM SCT080
     FM202000 28015G24KT P6SM SKC
     FM210500 24011KT P6SM SKC=

USA.gov is the U.S. government's official web portal to all federal, state and local government web resources and services.